createdAt,value
2023-01-15T00:00:28.037Z,100.00
2023-01-15T00:02:55.977Z,100.00
2023-01-15T00:05:22.378Z,100.00
2023-01-15T00:07:48.726Z,100.00
2023-01-15T00:10:15.241Z,100.00
2023-01-15T00:12:41.599Z,100.00
2023-01-15T00:15:08.207Z,100.00
2023-01-15T00:17:34.555Z,100.00
2023-01-15T00:20:00.887Z,100.00
2023-01-15T00:22:29.495Z,100.00
2023-01-15T00:24:55.819Z,100.00
2023-01-15T00:27:22.185Z,100.00
2023-01-15T00:29:48.598Z,100.00
2023-01-15T00:32:14.917Z,100.00
2023-01-15T00:34:41.197Z,100.00
2023-01-15T00:37:07.571Z,100.00
2023-01-15T00:39:33.916Z,100.00
2023-01-15T00:42:00.298Z,100.00
2023-01-15T00:44:26.665Z,100.00
2023-01-15T00:46:53.129Z,100.00
2023-01-15T00:49:19.477Z,100.00
2023-01-15T00:51:45.940Z,100.00
2023-01-15T00:54:12.342Z,100.00
2023-01-15T00:56:38.676Z,100.00
2023-01-15T00:59:05.693Z,100.00
2023-01-15T01:01:32.142Z,100.00
2023-01-15T01:03:58.603Z,100.00
2023-01-15T01:06:25.010Z,100.00
2023-01-15T01:08:51.345Z,100.00
2023-01-15T01:11:20.397Z,100.00
2023-01-15T01:13:47.467Z,100.00
2023-01-15T01:16:22.984Z,100.00
2023-01-15T01:18:50.305Z,100.00
2023-01-15T01:21:16.979Z,100.00
2023-01-15T01:23:43.786Z,100.00
2023-01-15T01:26:10.160Z,100.00
2023-01-15T01:28:36.608Z,100.00
2023-01-15T01:31:08.007Z,100.00
2023-01-15T01:33:34.611Z,100.00
2023-01-15T01:36:01.397Z,100.00
2023-01-15T01:38:27.732Z,100.00
2023-01-15T01:40:54.125Z,100.00
2023-01-15T01:43:26.304Z,100.00
2023-01-15T01:45:52.769Z,100.00
2023-01-15T01:48:24.728Z,100.00
2023-01-15T01:50:51.413Z,100.00
2023-01-15T01:53:21.448Z,100.00
2023-01-15T01:55:49.989Z,100.00
2023-01-15T01:58:17.529Z,100.00
2023-01-15T02:00:47.576Z,100.00
2023-01-15T02:03:14.556Z,100.00
2023-01-15T02:05:46.163Z,100.00
2023-01-15T02:08:12.836Z,100.00
2023-01-15T02:10:39.238Z,100.00
2023-01-15T02:13:20.470Z,100.00
2023-01-15T02:16:00.705Z,100.00
2023-01-15T02:18:40.292Z,100.00
2023-01-15T02:21:42.063Z,100.00
2023-01-15T02:24:23.486Z,100.00
2023-01-15T02:27:10.025Z,100.00
2023-01-15T02:29:56.030Z,100.00
2023-01-15T02:32:44.056Z,100.00
2023-01-15T02:35:21.689Z,100.00
2023-01-15T02:37:58.696Z,100.00
2023-01-15T02:40:26.518Z,99.88
2023-01-15T02:42:55.089Z,99.45
2023-01-15T02:45:26.132Z,99.84
2023-01-15T02:48:01.675Z,99.64
2023-01-15T02:50:36.028Z,99.62
2023-01-15T02:53:07.623Z,99.48
2023-01-15T02:55:44.600Z,98.50
2023-01-15T02:58:16.427Z,99.16
2023-01-15T03:00:47.134Z,98.57
2023-01-15T03:03:19.961Z,98.20
2023-01-15T03:06:03.232Z,98.67
2023-01-15T03:08:30.175Z,97.91
2023-01-15T03:10:56.458Z,98.17
2023-01-15T03:13:29.675Z,97.85
2023-01-15T03:16:03.603Z,97.58
2023-01-15T03:18:35.742Z,97.76
2023-01-15T03:21:08.030Z,97.42
2023-01-15T03:23:37.534Z,97.35
2023-01-15T03:26:04.022Z,97.12
2023-01-15T03:28:35.827Z,97.31
2023-01-15T03:31:02.637Z,97.91
2023-01-15T03:33:29.927Z,97.56
2023-01-15T03:35:59.427Z,97.64
2023-01-15T03:38:29.530Z,97.90
2023-01-15T03:41:04.670Z,97.56
2023-01-15T03:43:57.888Z,97.10
2023-01-15T03:46:51.483Z,97.34
2023-01-15T03:49:26.497Z,97.17
2023-01-15T03:52:07.838Z,97.36
2023-01-15T03:54:48.224Z,97.90
2023-01-15T03:58:13.462Z,97.17
2023-01-15T04:00:48.926Z,97.71
2023-01-15T04:03:17.273Z,97.69
2023-01-15T04:05:44.095Z,96.58
2023-01-15T04:08:13.251Z,96.42
2023-01-15T04:10:51.435Z,96.12
2023-01-15T04:13:17.763Z,95.98
2023-01-15T04:15:44.152Z,96.29
2023-01-15T04:18:10.551Z,95.65
2023-01-15T04:20:36.917Z,96.12
2023-01-15T04:23:03.352Z,95.88
2023-01-15T04:25:29.708Z,95.73
2023-01-15T04:27:56.514Z,96.03
2023-01-15T04:30:23.242Z,96.14
2023-01-15T04:32:50.731Z,95.93
2023-01-15T04:35:18.266Z,96.48
2023-01-15T04:37:44.801Z,96.22
2023-01-15T04:40:12.115Z,96.42
2023-01-15T04:42:38.497Z,96.53
2023-01-15T04:45:05.394Z,96.18
2023-01-15T04:47:31.764Z,96.07
2023-01-15T04:49:58.100Z,96.35
2023-01-15T04:52:24.408Z,96.33
2023-01-15T04:54:50.674Z,96.63
2023-01-15T04:57:17.041Z,96.24
2023-01-15T04:59:43.456Z,96.39
2023-01-15T05:02:09.936Z,96.29
2023-01-15T05:04:36.750Z,96.66
2023-01-15T05:07:04.764Z,96.20
2023-01-15T05:09:31.750Z,96.53
2023-01-15T05:11:58.186Z,95.80
2023-01-15T05:14:24.642Z,96.80
2023-01-15T05:16:51.039Z,96.42
2023-01-15T05:19:17.563Z,97.99
2023-01-15T05:21:45.039Z,99.50
2023-01-15T05:24:17.528Z,100.00
2023-01-15T05:26:44.418Z,100.00
2023-01-15T05:29:11.674Z,100.00
2023-01-15T05:31:38.765Z,100.00
2023-01-15T05:34:05.100Z,100.00
2023-01-15T05:36:31.726Z,100.00
2023-01-15T05:38:59.569Z,100.00
2023-01-15T05:41:25.931Z,100.00
2023-01-15T05:43:52.439Z,100.00
2023-01-15T05:46:18.847Z,100.00
2023-01-15T05:48:45.288Z,100.00
2023-01-15T05:51:12.000Z,100.00
2023-01-15T05:53:38.330Z,100.00
2023-01-15T05:56:05.113Z,100.00
2023-01-15T05:58:32.002Z,100.00
2023-01-15T06:00:58.789Z,100.00
2023-01-15T06:03:26.359Z,100.00
2023-01-15T06:05:53.895Z,100.00
2023-01-15T06:08:21.595Z,100.00
2023-01-15T06:10:48.142Z,100.00
2023-01-15T06:13:15.333Z,100.00
2023-01-15T06:15:42.051Z,100.00
2023-01-15T06:18:08.720Z,100.00
2023-01-15T06:20:36.354Z,100.00
2023-01-15T06:23:02.766Z,100.00
2023-01-15T06:25:29.159Z,100.00
2023-01-15T06:27:55.566Z,100.00
2023-01-15T06:30:21.913Z,100.00
2023-01-15T06:32:48.226Z,100.00
2023-01-15T06:35:14.509Z,100.00
2023-01-15T06:37:40.878Z,100.00
2023-01-15T06:40:07.664Z,100.00
2023-01-15T06:42:33.998Z,100.00
2023-01-15T06:45:00.255Z,100.00
2023-01-15T06:47:26.752Z,100.00
2023-01-15T06:49:55.863Z,100.00
2023-01-15T06:52:24.315Z,100.00
2023-01-15T06:54:51.014Z,100.00
2023-01-15T06:57:17.643Z,100.00
2023-01-15T06:59:44.216Z,98.82
2023-01-15T07:02:12.148Z,98.55
2023-01-15T07:04:38.517Z,97.67
2023-01-15T07:07:05.729Z,97.32
2023-01-15T07:09:32.073Z,97.13
2023-01-15T07:11:58.552Z,96.65
2023-01-15T07:14:26.665Z,95.39
2023-01-15T07:16:53.051Z,95.85
2023-01-15T07:19:20.137Z,94.59
2023-01-15T07:21:46.859Z,94.45
2023-01-15T07:24:14.045Z,94.88
2023-01-15T07:26:41.631Z,95.03
2023-01-15T07:29:08.109Z,95.86
2023-01-15T07:31:34.956Z,96.15
2023-01-15T07:34:01.361Z,97.13
2023-01-15T07:36:28.039Z,97.91
2023-01-15T07:38:54.474Z,98.86
2023-01-15T07:41:20.883Z,98.99
2023-01-15T07:43:47.376Z,99.97
2023-01-15T07:46:13.690Z,100.00
2023-01-15T07:48:39.950Z,100.00
2023-01-15T07:51:06.329Z,100.00
2023-01-15T07:53:32.676Z,100.00
2023-01-15T07:55:59.016Z,100.00
2023-01-15T07:58:25.256Z,100.00
2023-01-15T08:00:51.622Z,100.00
2023-01-15T08:03:17.980Z,100.00
2023-01-15T08:05:44.432Z,100.00
2023-01-15T08:08:19.886Z,100.00
2023-01-15T08:10:46.244Z,100.00
2023-01-15T08:13:12.565Z,100.00
2023-01-15T08:15:40.256Z,100.00
2023-01-15T08:18:06.723Z,100.00
2023-01-15T08:20:35.106Z,100.00
2023-01-15T08:23:02.118Z,99.92
2023-01-15T08:25:28.487Z,99.44
2023-01-15T08:27:55.130Z,99.33
2023-01-15T08:30:24.609Z,98.78
2023-01-15T08:32:51.113Z,98.65
2023-01-15T08:35:17.576Z,98.39
2023-01-15T08:37:44.243Z,98.92
2023-01-15T08:40:12.617Z,98.22
2023-01-15T08:42:39.344Z,98.20
2023-01-15T08:45:06.472Z,98.40
2023-01-15T08:47:32.962Z,97.60
2023-01-15T08:49:59.343Z,97.32
2023-01-15T08:52:25.687Z,96.52
2023-01-15T08:54:52.050Z,97.00
2023-01-15T08:57:18.414Z,95.78
2023-01-15T08:59:44.772Z,95.67
2023-01-15T09:02:14.548Z,94.67
2023-01-15T09:04:40.971Z,95.03
2023-01-15T09:07:07.583Z,94.06
2023-01-15T09:09:34.324Z,94.49
2023-01-15T09:12:00.679Z,93.68
2023-01-15T09:14:56.917Z,93.67
2023-01-15T09:17:13.484Z,93.93
2023-01-15T09:19:40.003Z,93.76
2023-01-15T09:22:06.359Z,92.79
2023-01-15T09:24:32.727Z,92.02
2023-01-15T09:26:59.240Z,91.80
2023-01-15T09:29:25.581Z,91.00
2023-01-15T09:31:51.947Z,90.53
2023-01-15T09:34:21.179Z,90.41
2023-01-15T09:36:47.526Z,89.25
2023-01-15T09:39:13.981Z,88.18
2023-01-15T09:42:02.822Z,88.08
2023-01-15T09:44:50.527Z,88.00
2023-01-15T09:47:31.214Z,87.51
2023-01-15T09:50:10.662Z,88.12
2023-01-15T09:52:49.254Z,86.90
2023-01-15T09:55:31.616Z,87.81
2023-01-15T09:58:02.444Z,86.18
2023-01-15T10:00:35.479Z,87.96
2023-01-15T10:03:14.400Z,87.15
2023-01-15T10:05:50.630Z,86.48
2023-01-15T10:08:24.384Z,86.41
2023-01-15T10:11:11.935Z,86.19
2023-01-15T10:13:49.449Z,85.33
2023-01-15T10:16:22.098Z,85.77
2023-01-15T10:18:48.920Z,84.08
2023-01-15T10:21:44.722Z,84.69
2023-01-15T10:24:32.861Z,83.43
2023-01-15T10:26:59.886Z,84.92
2023-01-15T10:29:43.664Z,84.64
2023-01-15T10:32:18.878Z,84.22
2023-01-15T10:35:06.627Z,84.13
2023-01-15T10:37:32.938Z,83.46
2023-01-15T10:40:17.163Z,83.38
2023-01-15T10:43:02.073Z,83.76
2023-01-15T10:45:34.269Z,83.28
2023-01-15T10:48:04.417Z,84.13
2023-01-15T10:50:32.585Z,85.10
2023-01-15T10:53:11.196Z,87.42
2023-01-15T10:56:02.925Z,86.86
2023-01-15T10:58:46.334Z,87.46
2023-01-15T11:01:16.337Z,86.88
2023-01-15T11:03:43.931Z,87.02
2023-01-15T11:06:15.779Z,86.14
2023-01-15T11:11:36.725Z,85.92
2023-01-15T11:14:03.140Z,85.46
2023-01-15T11:16:29.569Z,84.40
2023-01-15T11:18:55.965Z,82.42
2023-01-15T11:21:24.272Z,83.51
2023-01-15T11:23:51.810Z,84.04
2023-01-15T11:26:26.579Z,84.67
2023-01-15T11:28:55.388Z,84.49
2023-01-15T11:31:21.901Z,81.84
2023-01-15T11:34:05.946Z,81.12
2023-01-15T11:36:33.801Z,81.04
2023-01-15T11:39:00.325Z,81.02
2023-01-15T11:41:26.660Z,80.97
2023-01-15T11:43:58.004Z,79.90
2023-01-15T11:46:25.616Z,80.13
2023-01-15T11:48:51.971Z,81.14
2023-01-15T11:51:19.055Z,80.86
2023-01-15T11:53:50.067Z,78.72
2023-01-15T11:56:20.535Z,77.62
2023-01-15T11:58:53.894Z,79.48
2023-01-15T12:01:32.852Z,80.04
2023-01-15T12:04:01.728Z,81.76
2023-01-15T12:06:30.997Z,83.77
2023-01-15T12:09:34.322Z,83.56
2023-01-15T12:12:26.857Z,83.45
2023-01-15T12:15:08.207Z,84.59
2023-01-15T12:17:37.756Z,85.43
2023-01-15T12:20:21.828Z,86.04
2023-01-15T12:22:57.795Z,85.94
2023-01-15T12:25:26.964Z,85.70
2023-01-15T12:28:11.806Z,85.80
2023-01-15T12:30:45.375Z,87.00
2023-01-15T12:33:19.059Z,86.39
2023-01-15T12:36:09.527Z,86.61
2023-01-15T12:39:07.560Z,85.62
2023-01-15T12:41:36.600Z,86.14
2023-01-15T12:44:03.166Z,87.15
2023-01-15T12:46:31.821Z,87.43
2023-01-15T12:49:27.407Z,88.64
2023-01-15T12:52:10.239Z,91.49
2023-01-15T12:54:48.256Z,91.28
2023-01-15T12:57:51.710Z,91.88
2023-01-15T13:00:27.047Z,93.97
2023-01-15T13:03:21.344Z,96.99
2023-01-15T13:05:56.453Z,98.22
2023-01-15T13:08:35.486Z,99.99
2023-01-15T13:11:02.151Z,100.00
2023-01-15T13:13:40.208Z,100.00
2023-01-15T13:16:22.607Z,100.00
2023-01-15T13:19:13.105Z,100.00
2023-01-15T13:21:42.047Z,100.00
2023-01-15T13:24:36.485Z,100.00
2023-01-15T13:27:42.000Z,100.00
2023-01-15T13:30:30.236Z,100.00
2023-01-15T13:33:04.760Z,100.00
2023-01-15T13:35:41.937Z,100.00
2023-01-15T13:38:18.904Z,100.00
2023-01-15T13:40:49.258Z,100.00
2023-01-15T13:43:38.059Z,100.00
2023-01-15T13:46:07.009Z,100.00
2023-01-15T13:48:41.331Z,100.00
2023-01-15T13:51:37.535Z,100.00
2023-01-15T13:54:10.627Z,100.00
2023-01-15T13:56:37.048Z,100.00
2023-01-15T13:59:24.724Z,100.00
2023-01-15T14:01:51.245Z,100.00
2023-01-15T14:04:18.210Z,99.56
2023-01-15T14:06:52.229Z,99.34
2023-01-15T14:09:18.714Z,99.08
2023-01-15T14:12:09.630Z,98.71
2023-01-15T14:15:20.659Z,98.70
2023-01-15T14:18:22.493Z,98.62
2023-01-15T14:20:57.947Z,98.15
2023-01-15T14:24:09.474Z,97.92
2023-01-15T14:26:54.626Z,97.88
2023-01-15T14:29:37.739Z,98.31
2023-01-15T14:32:30.910Z,98.27
2023-01-15T14:35:00.907Z,98.83
2023-01-15T14:37:38.582Z,98.87
2023-01-15T14:40:06.262Z,99.16
2023-01-15T14:42:37.133Z,99.09
2023-01-15T14:45:11.160Z,100.00
2023-01-15T14:47:47.663Z,99.99
2023-01-15T14:50:42.506Z,99.44
2023-01-15T14:53:11.876Z,99.67
2023-01-15T14:55:50.323Z,99.65
2023-01-15T14:58:42.066Z,99.55
2023-01-15T15:01:25.471Z,100.00
2023-01-15T15:03:59.898Z,100.00
2023-01-15T15:06:27.840Z,99.77
2023-01-15T15:09:01.737Z,99.52
2023-01-15T15:11:49.323Z,99.07
2023-01-15T15:14:17.853Z,97.83
2023-01-15T15:16:50.605Z,97.70
2023-01-15T15:19:23.880Z,97.52
2023-01-15T15:21:51.140Z,97.82
2023-01-15T15:24:28.685Z,98.25
2023-01-15T15:26:55.123Z,98.02
2023-01-15T15:29:22.191Z,98.06
2023-01-15T15:31:51.926Z,97.61
2023-01-15T15:34:33.837Z,97.42
2023-01-15T15:37:04.051Z,97.73
2023-01-15T15:39:47.270Z,97.80
2023-01-15T15:42:20.410Z,98.36
2023-01-15T15:44:52.984Z,98.74
2023-01-15T15:47:21.604Z,99.06
2023-01-15T15:49:48.170Z,99.02
2023-01-15T15:52:22.047Z,98.80
2023-01-15T15:54:58.498Z,99.15
2023-01-15T15:57:27.423Z,99.65
2023-01-15T15:59:53.992Z,99.83
2023-01-15T16:02:26.393Z,99.46
2023-01-15T16:05:00.637Z,99.16
2023-01-15T16:07:30.464Z,98.92
2023-01-15T16:10:00.741Z,99.15
2023-01-15T16:12:29.911Z,100.00
2023-01-15T16:14:57.745Z,100.00
2023-01-15T16:17:25.352Z,100.00
2023-01-15T16:19:51.875Z,100.00
2023-01-15T16:22:18.401Z,100.00
2023-01-15T16:25:01.810Z,100.00
2023-01-15T16:27:33.740Z,100.00
2023-01-15T16:30:00.293Z,100.00
2023-01-15T16:32:30.786Z,100.00
2023-01-15T16:35:27.652Z,100.00
2023-01-15T16:37:57.737Z,100.00
2023-01-15T16:40:32.961Z,100.00
2023-01-15T16:43:04.874Z,95.86
2023-01-15T16:45:32.349Z,93.89
2023-01-15T16:48:07.874Z,96.50
2023-01-15T16:50:36.580Z,99.74
2023-01-15T16:53:05.300Z,100.00
2023-01-15T16:55:34.308Z,100.00
2023-01-15T16:58:12.868Z,100.00
2023-01-15T17:00:40.864Z,100.00
2023-01-15T17:03:24.669Z,100.00
2023-01-15T17:05:56.728Z,100.00
2023-01-15T17:08:34.257Z,100.00
2023-01-15T17:11:02.870Z,100.00
2023-01-15T17:13:39.471Z,100.00
2023-01-15T17:16:16.773Z,100.00
2023-01-15T17:18:43.624Z,100.00
2023-01-15T17:21:16.516Z,100.00
2023-01-15T17:23:42.965Z,100.00
2023-01-15T17:26:16.144Z,100.00
2023-01-15T17:28:42.507Z,100.00
2023-01-15T17:31:16.086Z,100.00
2023-01-15T17:33:42.458Z,100.00
2023-01-15T17:36:09.842Z,100.00
2023-01-15T17:38:36.200Z,100.00
2023-01-15T17:41:02.469Z,100.00
2023-01-15T17:43:28.841Z,100.00
2023-01-15T17:45:55.137Z,100.00
2023-01-15T17:48:24.025Z,100.00
2023-01-15T17:50:50.424Z,100.00
2023-01-15T17:53:16.809Z,100.00
2023-01-15T17:55:43.109Z,100.00
2023-01-15T17:58:13.513Z,100.00
2023-01-15T18:00:44.590Z,100.00
2023-01-15T18:03:17.878Z,100.00
2023-01-15T18:05:46.341Z,100.00
2023-01-15T18:08:12.955Z,100.00
2023-01-15T18:10:39.492Z,100.00
2023-01-15T18:13:06.181Z,100.00
2023-01-15T18:15:33.581Z,100.00
2023-01-15T18:18:00.033Z,100.00
2023-01-15T18:20:26.396Z,100.00
2023-01-15T18:22:52.744Z,100.00
2023-01-15T18:25:19.100Z,100.00
2023-01-15T18:27:48.649Z,100.00
2023-01-15T18:30:16.188Z,100.00
2023-01-15T18:32:42.826Z,100.00
2023-01-15T18:35:09.395Z,100.00
2023-01-15T18:37:35.772Z,100.00
2023-01-15T18:40:02.165Z,100.00
2023-01-15T18:42:28.538Z,100.00
2023-01-15T18:44:54.765Z,100.00
2023-01-15T18:47:21.198Z,100.00
2023-01-15T18:49:47.529Z,100.00
2023-01-15T18:52:14.992Z,100.00
2023-01-15T18:54:41.436Z,100.00
2023-01-15T18:57:07.840Z,100.00
2023-01-15T18:59:34.205Z,100.00
2023-01-15T19:02:00.856Z,100.00
2023-01-15T19:04:27.362Z,100.00
2023-01-15T19:06:56.355Z,100.00
2023-01-15T19:09:22.908Z,100.00
2023-01-15T19:11:49.367Z,100.00
2023-01-15T19:14:15.731Z,100.00
2023-01-15T19:16:42.457Z,100.00
2023-01-15T19:19:08.848Z,100.00
2023-01-15T19:21:35.192Z,100.00
2023-01-15T19:24:01.527Z,100.00
2023-01-15T19:26:27.856Z,100.00
2023-01-15T19:28:54.181Z,100.00
2023-01-15T19:31:22.478Z,100.00
2023-01-15T19:33:51.389Z,100.00
2023-01-15T19:36:17.689Z,100.00
2023-01-15T19:38:43.973Z,100.00
2023-01-15T19:41:11.924Z,100.00
2023-01-15T19:43:38.248Z,100.00
2023-01-15T19:46:05.091Z,100.00
2023-01-15T19:48:33.626Z,100.00
2023-01-15T19:51:00.099Z,100.00
2023-01-15T19:53:26.495Z,100.00
2023-01-15T19:55:53.005Z,100.00
2023-01-15T19:58:19.575Z,100.00
2023-01-15T20:00:47.804Z,100.00
2023-01-15T20:03:15.250Z,100.00
2023-01-15T20:05:43.054Z,100.00
2023-01-15T20:08:09.640Z,100.00
2023-01-15T20:10:37.428Z,100.00
2023-01-15T20:13:03.834Z,100.00
2023-01-15T20:15:30.865Z,100.00
2023-01-15T20:17:57.634Z,100.00
2023-01-15T20:20:25.205Z,100.00
2023-01-15T20:22:51.620Z,100.00
2023-01-15T20:25:18.335Z,100.00
2023-01-15T20:27:44.882Z,100.00
2023-01-15T20:30:14.828Z,100.00
2023-01-15T20:32:43.481Z,100.00
2023-01-15T20:35:13.063Z,100.00
2023-01-15T20:37:39.950Z,100.00
2023-01-15T20:40:06.961Z,100.00
2023-01-15T20:42:34.048Z,100.00
2023-01-15T20:45:00.385Z,100.00
2023-01-15T20:47:27.293Z,100.00
2023-01-15T20:49:53.593Z,100.00
2023-01-15T20:52:19.970Z,100.00
2023-01-15T20:54:46.353Z,100.00
2023-01-15T20:57:12.609Z,100.00
2023-01-15T20:59:38.957Z,100.00
2023-01-15T21:02:05.425Z,100.00
2023-01-15T21:04:31.956Z,100.00
2023-01-15T21:06:58.315Z,100.00
2023-01-15T21:09:24.635Z,100.00
2023-01-15T21:11:51.082Z,100.00
2023-01-15T21:14:17.463Z,100.00
2023-01-15T21:16:43.736Z,100.00
2023-01-15T21:19:10.102Z,100.00
2023-01-15T21:21:38.441Z,100.00
2023-01-15T21:24:04.942Z,100.00
2023-01-15T21:26:31.257Z,100.00
2023-01-15T21:28:57.583Z,100.00
2023-01-15T21:31:24.056Z,100.00
2023-01-15T21:33:53.609Z,100.00
2023-01-15T21:36:20.255Z,100.00
2023-01-15T21:38:50.921Z,100.00
2023-01-15T21:41:17.460Z,100.00
2023-01-15T21:43:44.000Z,100.00
2023-01-15T21:46:10.455Z,100.00
2023-01-15T21:48:36.801Z,100.00
2023-01-15T21:51:03.881Z,100.00
2023-01-15T21:53:31.647Z,100.00
2023-01-15T21:55:57.999Z,100.00
2023-01-15T21:58:24.250Z,100.00
2023-01-15T22:00:50.603Z,100.00
2023-01-15T22:03:16.917Z,100.00
2023-01-15T22:05:44.272Z,100.00
2023-01-15T22:08:11.361Z,100.00
2023-01-15T22:10:37.755Z,100.00
2023-01-15T22:13:04.042Z,100.00
2023-01-15T22:15:30.413Z,100.00
2023-01-15T22:17:56.663Z,100.00
2023-01-15T22:20:23.051Z,100.00
2023-01-15T22:22:49.320Z,100.00
2023-01-15T22:25:15.772Z,100.00
2023-01-15T22:27:42.456Z,100.00
2023-01-15T22:30:11.645Z,100.00
2023-01-15T22:32:38.026Z,100.00
2023-01-15T22:35:05.499Z,100.00
2023-01-15T22:37:32.079Z,100.00
2023-01-15T22:39:58.456Z,100.00
2023-01-15T22:42:24.718Z,100.00
2023-01-15T22:44:52.022Z,100.00
2023-01-15T22:47:19.871Z,100.00
2023-01-15T22:49:46.630Z,100.00
2023-01-15T22:52:13.056Z,100.00
2023-01-15T22:54:39.374Z,100.00
2023-01-15T22:57:05.660Z,100.00
2023-01-15T22:59:32.033Z,100.00
2023-01-15T23:01:58.363Z,100.00
2023-01-15T23:04:25.266Z,100.00
2023-01-15T23:06:52.709Z,100.00
2023-01-15T23:09:21.358Z,100.00
2023-01-15T23:11:47.981Z,100.00
2023-01-15T23:14:14.955Z,100.00
2023-01-15T23:16:42.284Z,100.00
2023-01-15T23:19:08.775Z,100.00
2023-01-15T23:21:35.164Z,100.00
2023-01-15T23:24:02.168Z,100.00
2023-01-15T23:26:32.684Z,100.00
2023-01-15T23:28:59.970Z,100.00
2023-01-15T23:31:27.294Z,100.00
2023-01-15T23:33:53.689Z,100.00
2023-01-15T23:36:20.794Z,100.00
2023-01-15T23:38:47.250Z,100.00
2023-01-15T23:41:16.398Z,100.00
2023-01-15T23:43:43.545Z,100.00
2023-01-15T23:46:15.121Z,100.00
2023-01-15T23:48:41.528Z,100.00
2023-01-15T23:51:07.780Z,100.00
2023-01-15T23:53:34.140Z,100.00
2023-01-15T23:56:00.928Z,100.00
2023-01-15T23:58:27.759Z,100.00
